Eagan, Minnesota
Current Conditions -  °F | °C
As of 7:53 PM on Friday 24 Oct 2014 (Local Time) from KMSP Reporting Station
Broken Clouds Broken Clouds  
Wind Chill: 62°   Ceiling: 25000
Heat Index: 62°   Visibility: 8mi
Dew Point: 53°   Wind: 5mph
Humidity: 72%   Direction: 190°S
Pressure: 29.85"   Gusts: NA
Location:  44.82°N, 93.17°W
Report Text: KMSP 250053Z 19004KT 8SM BKN250 17/12 A2985 RMK AO2 SLP109 T01670117
Loading
Personal Weather Stations






























Interactive Weather Map
Tropical Storm Tracking
New forecast layout! Learn more

10-Day Weather Forecast

Advertisements
Track Severe Weather on mobile